sensor_id;sensor_type;location;lat;lon;timestamp;pressure;altitude;pressure_sealevel;temperature;humidity
4767;BME280;2397;53.576;9.746;2023-02-23T00:01:53;101122.28;;;7.12;100.00
4767;BME280;2397;53.576;9.746;2023-02-23T00:04:20;101122.25;;;7.11;100.00
4767;BME280;2397;53.576;9.746;2023-02-23T00:06:47;101122.19;;;7.09;100.00
4767;BME280;2397;53.576;9.746;2023-02-23T00:09:13;101114.44;;;7.08;100.00
4767;BME280;2397;53.576;9.746;2023-02-23T00:11:54;101113.56;;;7.09;100.00
4767;BME280;2397;53.576;9.746;2023-02-23T00:14:24;101106.69;;;7.08;100.00
4767;BME280;2397;53.576;9.746;2023-02-23T00:16:53;101110.94;;;7.07;100.00
4767;BME280;2397;53.576;9.746;2023-02-23T00:19:20;101119.38;;;7.03;100.00
4767;BME280;2397;53.576;9.746;2023-02-23T00:21:49;101119.34;;;7.01;100.00
4767;BME280;2397;53.576;9.746;2023-02-23T00:24:16;101121.91;;;7.01;100.00
4767;BME280;2397;53.576;9.746;2023-02-23T00:26:46;101120.13;;;6.99;100.00
4767;BME280;2397;53.576;9.746;2023-02-23T00:29:15;101120.28;;;7.03;100.00
4767;BME280;2397;53.576;9.746;2023-02-23T00:31:44;101119.34;;;7.01;100.00
4767;BME280;2397;53.576;9.746;2023-02-23T00:34:12;101125.31;;;7.00;100.00
4767;BME280;2397;53.576;9.746;2023-02-23T00:36:39;101116.72;;;7.00;100.00
4767;BME280;2397;53.576;9.746;2023-02-23T00:39:10;101121.84;;;7.00;100.00
4767;BME280;2397;53.576;9.746;2023-02-23T00:41:48;101124.28;;;6.95;100.00
4767;BME280;2397;53.576;9.746;2023-02-23T00:44:15;101119.94;;;6.94;100.00
4767;BME280;2397;53.576;9.746;2023-02-23T00:46:42;101125.84;;;6.90;100.00
4767;BME280;2397;53.576;9.746;2023-02-23T00:49:11;101121.50;;;6.89;100.00
4767;BME280;2397;53.576;9.746;2023-02-23T00:51:38;101118.22;;;6.93;100.00
4767;BME280;2397;53.576;9.746;2023-02-23T00:54:05;101119.03;;;6.92;100.00
4767;BME280;2397;53.576;9.746;2023-02-23T00:56:32;101114.53;;;6.86;100.00
4767;BME280;2397;53.576;9.746;2023-02-23T00:58:59;101116.41;;;6.91;100.00
4767;BME280;2397;53.576;9.746;2023-02-23T01:01:25;101124.06;;;6.89;100.00
4767;BME280;2397;53.576;9.746;2023-02-23T01:03:52;101125.78;;;6.89;100.00
4767;BME280;2397;53.576;9.746;2023-02-23T01:06:18;101129.13;;;6.86;100.00
4767;BME280;2397;53.576;9.746;2023-02-23T01:08:47;101124.88;;;6.88;100.00
4767;BME280;2397;53.576;9.746;2023-02-23T01:11:19;101130.97;;;6.90;100.00
4767;BME280;2397;53.576;9.746;2023-02-23T01:13:51;101129.16;;;6.88;100.00
4767;BME280;2397;53.576;9.746;2023-02-23T01:16:21;101123.88;;;6.83;100.00
4767;BME280;2397;53.576;9.746;2023-02-23T01:18:48;101122.97;;;6.82;100.00
4767;BME280;2397;53.576;9.746;2023-02-23T01:21:35;101126.34;;;6.80;100.00
4767;BME280;2397;53.576;9.746;2023-02-23T01:24:03;101120.19;;;6.76;100.00
4767;BME280;2397;53.576;9.746;2023-02-23T01:26:32;101115.00;;;6.75;100.00
4767;BME280;2397;53.576;9.746;2023-02-23T01:29:02;101121.13;;;6.78;100.00
4767;BME280;2397;53.576;9.746;2023-02-23T01:31:29;101115.94;;;6.77;100.00
4767;BME280;2397;53.576;9.746;2023-02-23T01:33:59;101117.06;;;6.85;100.00
4767;BME280;2397;53.576;9.746;2023-02-23T01:36:26;101114.44;;;6.83;100.00
4767;BME280;2397;53.576;9.746;2023-02-23T01:38:56;101117.91;;;6.84;100.00
4767;BME280;2397;53.576;9.746;2023-02-23T01:41:27;101116.66;;;6.73;100.00
4767;BME280;2397;53.576;9.746;2023-02-23T01:46:35;101116.66;;;6.73;100.00
4767;BME280;2397;53.576;9.746;2023-02-23T01:49:02;101115.59;;;6.67;100.00
4767;BME280;2397;53.576;9.746;2023-02-23T01:51:32;101119.91;;;6.68;100.00
4767;BME280;2397;53.576;9.746;2023-02-23T01:54:05;101119.91;;;6.68;100.00
4767;BME280;2397;53.576;9.746;2023-02-23T01:56:36;101114.78;;;6.68;100.00
4767;BME280;2397;53.576;9.746;2023-02-23T01:59:11;101118.22;;;6.69;100.00
4767;BME280;2397;53.576;9.746;2023-02-23T02:01:41;101119.06;;;6.68;100.00
4767;BME280;2397;53.576;9.746;2023-02-23T02:04:10;101118.91;;;6.63;100.00
4767;BME280;2397;53.576;9.746;2023-02-23T02:06:43;101114.56;;;6.62;100.00
4767;BME280;2397;53.576;9.746;2023-02-23T02:09:15;101111.19;;;6.63;100.00
4767;BME280;2397;53.576;9.746;2023-02-23T02:11:42;101111.34;;;6.68;100.00
4767;BME280;2397;53.576;9.746;2023-02-23T02:14:15;101119.13;;;6.70;100.00
4767;BME280;2397;53.576;9.746;2023-02-23T02:25:21;101122.59;;;6.72;100.00
4767;BME280;2397;53.576;9.746;2023-02-23T02:28:10;101123.50;;;6.72;100.00
4767;BME280;2397;53.576;9.746;2023-02-23T02:42:33;101118.06;;;6.64;100.00
4767;BME280;2397;53.576;9.746;2023-02-23T02:45:20;101118.06;;;6.64;100.00
4767;BME280;2397;53.576;9.746;2023-02-23T02:48:17;101117.94;;;6.61;100.00
4767;BME280;2397;53.576;9.746;2023-02-23T02:50:57;101119.50;;;6.56;100.00
4767;BME280;2397;53.576;9.746;2023-02-23T02:53:33;101117.53;;;6.49;100.00
4767;BME280;2397;53.576;9.746;2023-02-23T02:56:05;101119.19;;;6.47;100.00
4767;BME280;2397;53.576;9.746;2023-02-23T02:58:32;101120.53;;;6.37;100.00
4767;BME280;2397;53.576;9.746;2023-02-23T03:01:14;101117.19;;;6.40;100.00
4767;BME280;2397;53.576;9.746;2023-02-23T03:04:16;101106.91;;;6.40;100.00
4767;BME280;2397;53.576;9.746;2023-02-23T03:07:09;101107.41;;;6.29;100.00
4767;BME280;2397;53.576;9.746;2023-02-23T03:10:02;101107.28;;;6.26;100.00
4767;BME280;2397;53.576;9.746;2023-02-23T03:13:24;101113.56;;;6.35;100.00
4767;BME280;2397;53.576;9.746;2023-02-23T03:19:34;101098.78;;;6.29;100.00
4767;BME280;2397;53.576;9.746;2023-02-23T03:22:27;101107.50;;;6.32;100.00
4767;BME280;2397;53.576;9.746;2023-02-23T03:25:18;101105.09;;;6.37;100.00
4767;BME280;2397;53.576;9.746;2023-02-23T03:28:12;101112.53;;;6.29;100.00
4767;BME280;2397;53.576;9.746;2023-02-23T03:31:06;101110.06;;;6.32;100.00
4767;BME280;2397;53.576;9.746;2023-02-23T03:34:09;101104.03;;;6.32;100.00
4767;BME280;2397;53.576;9.746;2023-02-23T03:37:24;101101.09;;;6.21;100.00
4767;BME280;2397;53.576;9.746;2023-02-23T03:40:19;101115.09;;;6.29;100.00
4767;BME280;2397;53.576;9.746;2023-02-23T03:43:12;101105.41;;;6.22;100.00
4767;BME280;2397;53.576;9.746;2023-02-23T03:46:00;101111.41;;;6.23;100.00
4767;BME280;2397;53.576;9.746;2023-02-23T03:48:48;101111.59;;;6.27;100.00
4767;BME280;2397;53.576;9.746;2023-02-23T03:51:37;101107.28;;;6.26;100.00
4767;BME280;2397;53.576;9.746;2023-02-23T03:54:32;101117.63;;;6.28;100.00
4767;BME280;2397;53.576;9.746;2023-02-23T03:57:19;101120.25;;;6.29;100.00
4767;BME280;2397;53.576;9.746;2023-02-23T04:00:12;101118.38;;;6.25;100.00
4767;BME280;2397;53.576;9.746;2023-02-23T04:03:01;101116.63;;;6.24;100.00
4767;BME280;2397;53.576;9.746;2023-02-23T04:05:49;101119.03;;;6.20;100.00
4767;BME280;2397;53.576;9.746;2023-02-23T04:08:36;101114.88;;;6.23;100.00
4767;BME280;2397;53.576;9.746;2023-02-23T04:11:44;101117.50;;;6.25;100.00
4767;BME280;2397;53.576;9.746;2023-02-23T04:14:35;101115.00;;;6.26;100.00
4767;BME280;2397;53.576;9.746;2023-02-23T04:17:03;101120.19;;;6.28;100.00
4767;BME280;2397;53.576;9.746;2023-02-23T04:19:30;101117.03;;;6.35;100.00
4767;BME280;2397;53.576;9.746;2023-02-23T04:21:57;101117.31;;;6.43;100.00
4767;BME280;2397;53.576;9.746;2023-02-23T04:24:23;101109.97;;;6.29;100.00
4767;BME280;2397;53.576;9.746;2023-02-23T04:26:50;101117.56;;;6.26;100.00
4767;BME280;2397;53.576;9.746;2023-02-23T04:29:16;101116.44;;;6.20;100.00
4767;BME280;2397;53.576;9.746;2023-02-23T04:31:42;101121.88;;;6.27;100.00
4767;BME280;2397;53.576;9.746;2023-02-23T04:34:09;101125.56;;;6.34;100.00
4767;BME280;2397;53.576;9.746;2023-02-23T04:36:36;101120.84;;;6.22;100.00
4767;BME280;2397;53.576;9.746;2023-02-23T04:39:02;101121.88;;;6.27;100.00
4767;BME280;2397;53.576;9.746;2023-02-23T04:41:29;101128.53;;;6.22;100.00
4767;BME280;2397;53.576;9.746;2023-02-23T04:43:55;101119.13;;;6.23;100.00
4767;BME280;2397;53.576;9.746;2023-02-23T04:46:21;101119.88;;;6.20;100.00
4767;BME280;2397;53.576;9.746;2023-02-23T04:48:48;101115.47;;;6.16;100.00
4767;BME280;2397;53.576;9.746;2023-02-23T04:51:14;101120.94;;;6.25;100.00
4767;BME280;2397;53.576;9.746;2023-02-23T04:53:41;101119.03;;;6.20;100.00
4767;BME280;2397;53.576;9.746;2023-02-23T04:56:07;101117.19;;;6.17;100.00
4767;BME280;2397;53.576;9.746;2023-02-23T04:58:34;101114.94;;;6.25;100.00
4767;BME280;2397;53.576;9.746;2023-02-23T05:01:05;101113.00;;;6.19;100.00
4767;BME280;2397;53.576;9.746;2023-02-23T05:03:31;101115.69;;;6.22;100.00
4767;BME280;2397;53.576;9.746;2023-02-23T05:05:58;101121.53;;;6.18;100.00
4767;BME280;2397;53.576;9.746;2023-02-23T05:08:24;101117.94;;;6.13;100.00
4767;BME280;2397;53.576;9.746;2023-02-23T05:10:51;101123.19;;;6.16;100.00
4767;BME280;2397;53.576;9.746;2023-02-23T05:13:17;101120.78;;;6.21;100.00
4767;BME280;2397;53.576;9.746;2023-02-23T05:15:44;101128.06;;;6.32;100.00
4767;BME280;2397;53.576;9.746;2023-02-23T05:18:10;101127.31;;;6.35;100.00
4767;BME280;2397;53.576;9.746;2023-02-23T05:20:37;101127.22;;;6.33;100.00
4767;BME280;2397;53.576;9.746;2023-02-23T05:23:03;101129.00;;;6.35;100.00
4767;BME280;2397;53.576;9.746;2023-02-23T05:25:30;101127.97;;;6.29;100.00
4767;BME280;2397;53.576;9.746;2023-02-23T05:27:56;101132.31;;;6.32;100.00
4767;BME280;2397;53.576;9.746;2023-02-23T05:30:23;101126.47;;;6.36;100.00
4767;BME280;2397;53.576;9.746;2023-02-23T05:32:49;101122.09;;;6.33;100.00
4767;BME280;2397;53.576;9.746;2023-02-23T05:35:16;101127.31;;;6.35;100.00
4767;BME280;2397;53.576;9.746;2023-02-23T05:37:43;101124.84;;;6.38;100.00
4767;BME280;2397;53.576;9.746;2023-02-23T05:40:10;101125.50;;;6.32;100.00
4767;BME280;2397;53.576;9.746;2023-02-23T05:42:37;101121.75;;;6.24;100.00
4767;BME280;2397;53.576;9.746;2023-02-23T05:45:04;101133.22;;;6.32;100.00
4767;BME280;2397;53.576;9.746;2023-02-23T05:47:31;101128.94;;;6.33;100.00
4767;BME280;2397;53.576;9.746;2023-02-23T05:49:57;101131.69;;;6.38;100.00
4767;BME280;2397;53.576;9.746;2023-02-23T05:52:24;101135.94;;;6.37;100.00
4767;BME280;2397;53.576;9.746;2023-02-23T05:54:50;101134.31;;;6.39;100.00
4767;BME280;2397;53.576;9.746;2023-02-23T05:57:16;101132.84;;;6.46;100.00
4767;BME280;2397;53.576;9.746;2023-02-23T05:59:43;101135.47;;;6.47;100.00
4767;BME280;2397;53.576;9.746;2023-02-23T06:02:09;101130.22;;;6.44;100.00
4767;BME280;2397;53.576;9.746;2023-02-23T06:04:36;101131.69;;;6.38;100.00
4767;BME280;2397;53.576;9.746;2023-02-23T06:07:02;101134.25;;;6.38;100.00
4767;BME280;2397;53.576;9.746;2023-02-23T06:09:29;101140.41;;;6.41;100.00
4767;BME280;2397;53.576;9.746;2023-02-23T06:11:55;101140.63;;;6.47;100.00
4767;BME280;2397;53.576;9.746;2023-02-23T06:14:24;101143.34;;;6.52;100.00
4767;BME280;2397;53.576;9.746;2023-02-23T06:16:51;101147.69;;;6.53;100.00
4767;BME280;2397;53.576;9.746;2023-02-23T06:19:17;101149.31;;;6.51;100.00
4767;BME280;2397;53.576;9.746;2023-02-23T06:21:44;101153.53;;;6.49;100.00
4767;BME280;2397;53.576;9.746;2023-02-23T06:24:11;101155.41;;;6.53;100.00
4767;BME280;2397;53.576;9.746;2023-02-23T06:26:37;101158.72;;;6.50;100.00
4767;BME280;2397;53.576;9.746;2023-02-23T06:29:03;101157.03;;;6.51;100.00
4767;BME280;2397;53.576;9.746;2023-02-23T06:31:30;101160.31;;;6.47;100.00
4767;BME280;2397;53.576;9.746;2023-02-23T06:33:56;101162.94;;;6.48;100.00
4767;BME280;2397;53.576;9.746;2023-02-23T06:36:23;101167.31;;;6.51;100.00
4767;BME280;2397;53.576;9.746;2023-02-23T06:38:49;101172.34;;;6.48;100.00
4767;BME280;2397;53.576;9.746;2023-02-23T06:41:16;101172.34;;;6.48;100.00
4767;BME280;2397;53.576;9.746;2023-02-23T06:43:43;101182.56;;;6.46;100.00
4767;BME280;2397;53.576;9.746;2023-02-23T06:46:09;101176.50;;;6.44;100.00
4767;BME280;2397;53.576;9.746;2023-02-23T06:48:36;101183.28;;;6.42;100.00
4767;BME280;2397;53.576;9.746;2023-02-23T06:51:03;101182.28;;;6.39;100.00
4767;BME280;2397;53.576;9.746;2023-02-23T06:53:29;101186.03;;;6.47;100.00
4767;BME280;2397;53.576;9.746;2023-02-23T06:55:56;101185.03;;;6.43;100.00
4767;BME280;2397;53.576;9.746;2023-02-23T06:58:22;101189.31;;;6.43;100.00
4767;BME280;2397;53.576;9.746;2023-02-23T07:00:49;101182.41;;;6.42;100.00
4767;BME280;2397;53.576;9.746;2023-02-23T07:03:15;101182.50;;;6.45;100.00
4767;BME280;2397;53.576;9.746;2023-02-23T07:05:42;101197.25;;;6.49;100.00
4767;BME280;2397;53.576;9.746;2023-02-23T07:08:08;101193.88;;;6.50;100.00
4767;BME280;2397;53.576;9.746;2023-02-23T07:10:35;101201.47;;;6.47;100.00
4767;BME280;2397;53.576;9.746;2023-02-23T07:13:01;101197.19;;;6.47;100.00
4767;BME280;2397;53.576;9.746;2023-02-23T07:15:28;101198.97;;;6.48;100.00
4767;BME280;2397;53.576;9.746;2023-02-23T07:17:54;101202.44;;;6.50;100.00
4767;BME280;2397;53.576;9.746;2023-02-23T07:20:21;101205.06;;;6.52;100.00
4767;BME280;2397;53.576;9.746;2023-02-23T07:22:48;101211.75;;;6.47;100.00
4767;BME280;2397;53.576;9.746;2023-02-23T07:25:14;101206.63;;;6.47;100.00
4767;BME280;2397;53.576;9.746;2023-02-23T07:27:41;101210.16;;;6.50;100.00
4767;BME280;2397;53.576;9.746;2023-02-23T07:30:08;101210.97;;;6.49;100.00
4767;BME280;2397;53.576;9.746;2023-02-23T07:32:34;101212.75;;;6.50;100.00
4767;BME280;2397;53.576;9.746;2023-02-23T07:35:02;101215.38;;;6.52;100.00
4767;BME280;2397;53.576;9.746;2023-02-23T07:37:29;101214.78;;;6.59;100.00
4767;BME280;2397;53.576;9.746;2023-02-23T07:39:55;101221.63;;;6.59;100.00
4767;BME280;2397;53.576;9.746;2023-02-23T07:42:22;101210.34;;;6.55;100.00
4767;BME280;2397;53.576;9.746;2023-02-23T07:44:48;101219.94;;;6.59;100.00
4767;BME280;2397;53.576;9.746;2023-02-23T07:47:15;101218.16;;;6.58;100.00
4767;BME280;2397;53.576;9.746;2023-02-23T07:49:41;101219.06;;;6.59;100.00
4767;BME280;2397;53.576;9.746;2023-02-23T07:52:08;101230.03;;;6.55;100.00
4767;BME280;2397;53.576;9.746;2023-02-23T07:54:34;101238.41;;;6.49;100.00
4767;BME280;2397;53.576;9.746;2023-02-23T07:57:00;101239.25;;;6.49;100.00
4767;BME280;2397;53.576;9.746;2023-02-23T07:59:27;101238.44;;;6.50;100.00
4767;BME280;2397;53.576;9.746;2023-02-23T08:01:53;101243.53;;;6.49;100.00
4767;BME280;2397;53.576;9.746;2023-02-23T08:04:20;101254.63;;;6.48;100.00
4767;BME280;2397;53.576;9.746;2023-02-23T08:06:47;101246.75;;;6.43;100.00
4767;BME280;2397;53.576;9.746;2023-02-23T08:09:13;101248.41;;;6.41;100.00
4767;BME280;2397;53.576;9.746;2023-02-23T08:11:39;101245.78;;;6.40;100.00
4767;BME280;2397;53.576;9.746;2023-02-23T08:14:06;101251.09;;;6.44;100.00
4767;BME280;2397;53.576;9.746;2023-02-23T08:16:32;101247.63;;;6.44;100.00
4767;BME280;2397;53.576;9.746;2023-02-23T08:18:59;101252.91;;;6.47;100.00
4767;BME280;2397;53.576;9.746;2023-02-23T08:21:27;101254.53;;;6.45;100.00
4767;BME280;2397;53.576;9.746;2023-02-23T08:23:56;101253.66;;;6.44;100.00
4767;BME280;2397;53.576;9.746;2023-02-23T08:26:22;101251.66;;;6.37;100.00
4767;BME280;2397;53.576;9.746;2023-02-23T08:28:51;101258.38;;;6.33;100.00
4767;BME280;2397;53.576;9.746;2023-02-23T08:31:18;101257.56;;;6.35;100.00
4767;BME280;2397;53.576;9.746;2023-02-23T08:33:48;101252.28;;;6.31;100.00
4767;BME280;2397;53.576;9.746;2023-02-23T08:36:14;101255.72;;;6.32;100.00
4767;BME280;2397;53.576;9.746;2023-02-23T08:38:40;101260.13;;;6.35;100.00
4767;BME280;2397;53.576;9.746;2023-02-23T08:41:07;101264.47;;;6.36;100.00
4767;BME280;2397;53.576;9.746;2023-02-23T08:43:33;101260.06;;;6.33;100.00
4767;BME280;2397;53.576;9.746;2023-02-23T08:45:59;101262.47;;;6.28;100.00
4767;BME280;2397;53.576;9.746;2023-02-23T08:48:26;101253.81;;;6.26;100.00
4767;BME280;2397;53.576;9.746;2023-02-23T08:50:56;101260.56;;;6.24;100.00
4767;BME280;2397;53.576;9.746;2023-02-23T08:53:24;101258.97;;;6.26;100.00
4767;BME280;2397;53.576;9.746;2023-02-23T08:55:57;101258.19;;;6.29;100.00
4767;BME280;2397;53.576;9.746;2023-02-23T08:58:24;101258.84;;;6.23;100.00
4767;BME280;2397;53.576;9.746;2023-02-23T09:00:50;101257.88;;;6.21;100.00
4767;BME280;2397;53.576;9.746;2023-02-23T09:03:17;101257.84;;;6.20;100.00
4767;BME280;2397;53.576;9.746;2023-02-23T09:05:44;101257.09;;;6.22;100.00
4767;BME280;2397;53.576;9.746;2023-02-23T09:08:11;101259.59;;;6.21;100.00
4767;BME280;2397;53.576;9.746;2023-02-23T09:10:39;101261.41;;;6.23;100.00
4767;BME280;2397;53.576;9.746;2023-02-23T09:13:05;101258.69;;;6.20;100.00
4767;BME280;2397;53.576;9.746;2023-02-23T09:15:32;101256.19;;;6.22;100.00
4767;BME280;2397;53.576;9.746;2023-02-23T09:18:01;101262.34;;;6.25;100.00
4767;BME280;2397;53.576;9.746;2023-02-23T09:20:28;101261.16;;;6.17;100.00
4767;BME280;2397;53.576;9.746;2023-02-23T09:22:54;101267.88;;;6.13;100.00
4767;BME280;2397;53.576;9.746;2023-02-23T09:25:21;101264.69;;;6.19;100.00
4767;BME280;2397;53.576;9.746;2023-02-23T09:27:50;101267.13;;;6.16;100.00
4767;BME280;2397;53.576;9.746;2023-02-23T09:30:19;101265.38;;;6.15;100.00
4767;BME280;2397;53.576;9.746;2023-02-23T09:32:46;101269.53;;;6.11;100.00
4767;BME280;2397;53.576;9.746;2023-02-23T09:35:14;101265.38;;;6.15;100.00
4767;BME280;2397;53.576;9.746;2023-02-23T09:37:44;101266.63;;;6.25;100.00
4767;BME280;2397;53.576;9.746;2023-02-23T09:40:17;101269.38;;;6.29;100.00
4767;BME280;2397;53.576;9.746;2023-02-23T09:45:32;101264.69;;;6.42;100.00
4767;BME280;2397;53.576;9.746;2023-02-23T09:48:09;101273.34;;;6.44;100.00
4767;BME280;2397;53.576;9.746;2023-02-23T09:50:37;101276.63;;;6.40;100.00
4767;BME280;2397;53.576;9.746;2023-02-23T09:53:29;101281.78;;;6.40;100.00
4767;BME280;2397;53.576;9.746;2023-02-23T09:55:59;101279.19;;;6.40;100.00
4767;BME280;2397;53.576;9.746;2023-02-23T09:58:28;101284.00;;;6.32;100.00
4767;BME280;2397;53.576;9.746;2023-02-23T10:01:17;101282.47;;;6.36;100.00
4767;BME280;2397;53.576;9.746;2023-02-23T10:03:52;101288.53;;;6.38;100.00
4767;BME280;2397;53.576;9.746;2023-02-23T10:06:20;101285.03;;;6.36;100.00
4767;BME280;2397;53.576;9.746;2023-02-23T10:11:41;101284.16;;;6.35;100.00
4767;BME280;2397;53.576;9.746;2023-02-23T10:14:31;101285.03;;;6.36;100.00
4767;BME280;2397;53.576;9.746;2023-02-23T10:17:08;101284.97;;;6.34;100.00
4767;BME280;2397;53.576;9.746;2023-02-23T10:19:48;101284.06;;;6.33;100.00
4767;BME280;2397;53.576;9.746;2023-02-23T10:22:18;101286.41;;;6.27;100.00
4767;BME280;2397;53.576;9.746;2023-02-23T10:24:50;101291.50;;;6.26;100.00
4767;BME280;2397;53.576;9.746;2023-02-23T10:27:21;101288.69;;;6.20;100.00
4767;BME280;2397;53.576;9.746;2023-02-23T10:29:54;101292.97;;;6.19;100.00
4767;BME280;2397;53.576;9.746;2023-02-23T10:34:53;101299.09;;;6.23;100.00
4767;BME280;2397;53.576;9.746;2023-02-23T10:37:22;101298.97;;;6.20;100.00
4767;BME280;2397;53.576;9.746;2023-02-23T10:39:51;101299.66;;;6.15;100.00
4767;BME280;2397;53.576;9.746;2023-02-23T10:42:22;101297.84;;;6.13;100.00
4767;BME280;2397;53.576;9.746;2023-02-23T10:44:55;101304.84;;;6.17;100.00
4767;BME280;2397;53.576;9.746;2023-02-23T10:47:25;101302.09;;;6.12;100.00
4767;BME280;2397;53.576;9.746;2023-02-23T10:49:54;101289.31;;;6.14;100.00
4767;BME280;2397;53.576;9.746;2023-02-23T10:52:32;101307.34;;;6.15;100.00
4767;BME280;2397;53.576;9.746;2023-02-23T10:55:19;101300.59;;;6.18;100.00
4767;BME280;2397;53.576;9.746;2023-02-23T10:57:49;101301.72;;;6.24;100.00
4767;BME280;2397;53.576;9.746;2023-02-23T11:02:46;101300.63;;;6.40;100.00
4767;BME280;2397;53.576;9.746;2023-02-23T11:05:42;101304.47;;;6.50;100.00
4767;BME280;2397;53.576;9.746;2023-02-23T11:08:24;101297.03;;;6.58;100.00
4767;BME280;2397;53.576;9.746;2023-02-23T11:13:46;101299.78;;;6.62;100.00
4767;BME280;2397;53.576;9.746;2023-02-23T11:16:19;101291.72;;;6.76;100.00
4767;BME280;2397;53.576;9.746;2023-02-23T11:18:52;101295.03;;;6.73;100.00
4767;BME280;2397;53.576;9.746;2023-02-23T11:21:22;101289.31;;;6.80;100.00
4767;BME280;2397;53.576;9.746;2023-02-23T11:23:52;101285.63;;;6.96;100.00
4767;BME280;2397;53.576;9.746;2023-02-23T11:26:31;101283.25;;;7.02;100.00
4767;BME280;2397;53.576;9.746;2023-02-23T11:29:24;101279.28;;;7.11;100.00
4767;BME280;2397;53.576;9.746;2023-02-23T11:31:56;101286.28;;;7.15;100.00
4767;BME280;2397;53.576;9.746;2023-02-23T11:34:29;101278.38;;;7.10;100.00
4767;BME280;2397;53.576;9.746;2023-02-23T11:37:03;101278.97;;;7.03;100.00
4767;BME280;2397;53.576;9.746;2023-02-23T11:39:30;101276.06;;;6.94;100.00
4767;BME280;2397;53.576;9.746;2023-02-23T11:44:40;101277.72;;;6.92;100.00
4767;BME280;2397;53.576;9.746;2023-02-23T11:47:15;101287.59;;;6.81;100.00
4767;BME280;2397;53.576;9.746;2023-02-23T11:49:44;101276.97;;;6.72;100.00
4767;BME280;2397;53.576;9.746;2023-02-23T11:52:17;101280.78;;;6.81;100.00
4767;BME280;2397;53.576;9.746;2023-02-23T11:54:57;101274.88;;;6.84;100.00
4767;BME280;2397;53.576;9.746;2023-02-23T11:57:32;101274.63;;;6.78;100.00
4767;BME280;2397;53.576;9.746;2023-02-23T12:00:11;101270.91;;;6.70;100.00
4767;BME280;2397;53.576;9.746;2023-02-23T12:02:51;101268.59;;;6.77;100.00
4767;BME280;2397;53.576;9.746;2023-02-23T12:05:21;101268.84;;;6.83;100.00
4767;BME280;2397;53.576;9.746;2023-02-23T12:08:09;101277.38;;;6.82;100.00
4767;BME280;2397;53.576;9.746;2023-02-23T12:10:45;101267.06;;;6.82;100.00
4767;BME280;2397;53.576;9.746;2023-02-23T12:16:03;101263.47;;;6.77;100.00
4767;BME280;2397;53.576;9.746;2023-02-23T12:21:29;101270.97;;;6.71;100.00
4767;BME280;2397;53.576;9.746;2023-02-23T12:26:42;101275.16;;;6.69;100.00
4767;BME280;2397;53.576;9.746;2023-02-23T12:29:48;101276.91;;;6.70;100.00
4767;BME280;2397;53.576;9.746;2023-02-23T12:32:21;101276.97;;;6.72;100.00
4767;BME280;2397;53.576;9.746;2023-02-23T12:35:22;101272.72;;;6.72;100.00
4767;BME280;2397;53.576;9.746;2023-02-23T12:37:56;101272.06;;;6.78;100.00
4767;BME280;2397;53.576;9.746;2023-02-23T12:40:27;101272.16;;;6.81;100.00
4767;BME280;2397;53.576;9.746;2023-02-23T12:43:01;101271.34;;;6.82;100.00
4767;BME280;2397;53.576;9.746;2023-02-23T12:45:39;101268.19;;;6.89;100.00
4767;BME280;2397;53.576;9.746;2023-02-23T12:48:45;101270.88;;;6.92;100.00
4767;BME280;2397;53.576;9.746;2023-02-23T12:51:26;101273.44;;;6.92;100.00
4767;BME280;2397;53.576;9.746;2023-02-23T12:53:54;101266.91;;;7.00;100.00
4767;BME280;2397;53.576;9.746;2023-02-23T12:56:38;101263.38;;;6.98;100.00
4767;BME280;2397;53.576;9.746;2023-02-23T13:01:57;101257.41;;;6.99;100.00
4767;BME280;2397;53.576;9.746;2023-02-23T13:13:10;101258.22;;;6.98;100.00
4767;BME280;2397;53.576;9.746;2023-02-23T13:15:56;101265.13;;;6.99;100.00
4767;BME280;2397;53.576;9.746;2023-02-23T13:18:41;101253.28;;;7.04;100.00
4767;BME280;2397;53.576;9.746;2023-02-23T13:21:28;101254.28;;;7.08;100.00
4767;BME280;2397;53.576;9.746;2023-02-23T13:24:03;101248.19;;;7.06;100.00
4767;BME280;2397;53.576;9.746;2023-02-23T13:29:39;101249.91;;;7.06;100.00
4767;BME280;2397;53.576;9.746;2023-02-23T13:32:16;101249.19;;;7.10;100.00
4767;BME280;2397;53.576;9.746;2023-02-23T13:34:49;101249.16;;;7.08;100.00
4767;BME280;2397;53.576;9.746;2023-02-23T13:37:21;101247.72;;;7.16;100.00
4767;BME280;2397;53.576;9.746;2023-02-23T13:40:00;101242.81;;;7.23;100.00
4767;BME280;2397;53.576;9.746;2023-02-23T13:59:18;101246.53;;;7.07;100.00
4767;BME280;2397;53.576;9.746;2023-02-23T14:01:48;101239.72;;;7.09;100.00
4767;BME280;2397;53.576;9.746;2023-02-23T14:06:52;101245.19;;;7.18;100.00
4767;BME280;2397;53.576;9.746;2023-02-23T14:09:27;101242.69;;;7.19;100.00
4767;BME280;2397;53.576;9.746;2023-02-23T14:12:03;101251.19;;;7.17;100.00
4767;BME280;2397;53.576;9.746;2023-02-23T14:19:43;101250.34;;;7.18;100.00
4767;BME280;2397;53.576;9.746;2023-02-23T14:22:15;101247.16;;;7.25;100.00
4767;BME280;2397;53.576;9.746;2023-02-23T14:24:43;101240.78;;;7.14;100.00
4767;BME280;2397;53.576;9.746;2023-02-23T14:29:43;101242.56;;;7.16;100.00
4767;BME280;2397;53.576;9.746;2023-02-23T14:34:52;101248.50;;;7.14;100.00
4767;BME280;2397;53.576;9.746;2023-02-23T14:37:28;101246.63;;;7.10;100.00
4767;BME280;2397;53.576;9.746;2023-02-23T14:40:18;101244.22;;;7.14;100.00
4767;BME280;2397;53.576;9.746;2023-02-23T14:42:49;101240.66;;;7.11;100.00
4767;BME280;2397;53.576;9.746;2023-02-23T14:45:26;101249.25;;;7.11;100.00
4767;BME280;2397;53.576;9.746;2023-02-23T14:48:10;101248.34;;;7.09;100.00
4767;BME280;2397;53.576;9.746;2023-02-23T14:50:42;101246.72;;;7.13;100.00
4767;BME280;2397;53.576;9.746;2023-02-23T14:53:22;101244.00;;;7.08;100.00
4767;BME280;2397;53.576;9.746;2023-02-23T14:55:50;101249.19;;;7.10;100.00
4767;BME280;2397;53.576;9.746;2023-02-23T14:58:25;101254.34;;;7.10;100.00
4767;BME280;2397;53.576;9.746;2023-02-23T15:00:52;101251.78;;;7.10;100.00
4767;BME280;2397;53.576;9.746;2023-02-23T15:03:18;101258.44;;;7.04;100.00
4767;BME280;2397;53.576;9.746;2023-02-23T15:05:49;101255.06;;;7.06;100.00
4767;BME280;2397;53.576;9.746;2023-02-23T15:08:21;101249.59;;;6.96;100.00
4767;BME280;2397;53.576;9.746;2023-02-23T15:10:51;101252.75;;;6.89;100.00
4767;BME280;2397;53.576;9.746;2023-02-23T15:13:29;101257.09;;;6.90;100.00